createdAt,value
2022-08-20T00:00:51.293Z,63.92
2022-08-20T00:01:52.298Z,64.03
2022-08-20T00:02:51.274Z,63.92
2022-08-20T00:03:53.170Z,63.82
2022-08-20T00:04:51.253Z,64.03
2022-08-20T00:05:51.245Z,64.52
2022-08-20T00:06:52.237Z,64.22
2022-08-20T00:07:51.251Z,64.32
2022-08-20T00:08:51.245Z,64.42
2022-08-20T00:09:51.202Z,64.22
2022-08-20T00:10:54.934Z,64.32
2022-08-20T00:11:51.186Z,64.32
2022-08-20T00:12:51.204Z,64.32
2022-08-20T00:13:51.190Z,64.12
2022-08-20T00:14:51.161Z,64.12
2022-08-20T00:15:51.139Z,63.92
2022-08-20T00:16:51.138Z,63.82
2022-08-20T00:17:51.118Z,63.92
2022-08-20T00:18:51.144Z,64.03
2022-08-20T00:19:51.099Z,64.06
2022-08-20T00:20:51.091Z,64.15
2022-08-20T00:21:51.080Z,64.15
2022-08-20T00:22:52.071Z,64.36
2022-08-20T00:23:51.091Z,64.55
2022-08-20T00:24:51.062Z,64.55
2022-08-20T00:25:51.043Z,64.65
2022-08-20T00:26:52.630Z,64.75
2022-08-20T00:27:51.022Z,64.89
2022-08-20T00:28:51.033Z,64.89
2022-08-20T00:29:50.994Z,64.89
2022-08-20T00:30:50.995Z,64.86
2022-08-20T00:31:50.974Z,64.95
2022-08-20T00:32:50.974Z,64.75
2022-08-20T00:33:50.993Z,65.05
2022-08-20T00:34:50.955Z,64.95
2022-08-20T00:35:50.936Z,64.95
2022-08-20T00:36:50.935Z,65.05
2022-08-20T00:37:50.920Z,65.16
2022-08-20T00:38:50.934Z,65.16
2022-08-20T00:39:50.933Z,65.16
2022-08-20T00:40:50.939Z,65.16
2022-08-20T00:41:50.877Z,65.16
2022-08-20T00:42:50.879Z,65.05
2022-08-20T00:43:50.888Z,65.05
2022-08-20T00:44:50.859Z,65.05
2022-08-20T00:45:50.840Z,64.95
2022-08-20T00:46:50.829Z,64.95
2022-08-20T00:47:51.300Z,65.05
2022-08-20T00:48:50.810Z,65.16
2022-08-20T00:49:50.792Z,65.25
2022-08-20T00:50:50.792Z,65.36
2022-08-20T00:51:50.790Z,65.36
2022-08-20T00:52:50.769Z,65.45
2022-08-20T00:53:50.775Z,65.75
2022-08-20T00:54:50.754Z,65.86
2022-08-20T00:55:50.733Z,65.86
2022-08-20T00:56:50.727Z,65.95
2022-08-20T00:58:00.003Z,66.05
2022-08-20T00:58:51.726Z,66.16
2022-08-20T00:59:50.692Z,66.05
2022-08-20T01:00:50.686Z,66.16
2022-08-20T01:01:55.067Z,66.09
2022-08-20T01:02:51.677Z,66.16
2022-08-20T01:03:50.676Z,66.25
2022-08-20T01:04:50.638Z,66.05
2022-08-20T01:05:50.628Z,65.95
2022-08-20T01:06:50.627Z,66.19
2022-08-20T01:07:50.609Z,66.49
2022-08-20T01:08:50.627Z,66.69
2022-08-20T01:09:59.033Z,66.69
2022-08-20T01:10:51.580Z,66.59
2022-08-20T01:11:50.588Z,66.69
2022-08-20T01:12:55.554Z,66.99
2022-08-20T01:13:51.581Z,66.78
2022-08-20T01:14:50.532Z,66.92
2022-08-20T01:15:50.532Z,66.82
2022-08-20T01:16:50.513Z,66.62
2022-08-20T01:17:50.529Z,66.52
2022-08-20T01:18:50.524Z,66.62
2022-08-20T01:19:50.491Z,66.78
2022-08-20T01:20:50.496Z,66.89
2022-08-20T01:21:50.478Z,66.78
2022-08-20T01:22:50.455Z,66.59
2022-08-20T01:23:50.475Z,66.59
2022-08-20T01:24:50.437Z,66.28
2022-08-20T01:25:50.428Z,66.49
2022-08-20T01:26:50.417Z,66.69
2022-08-20T01:27:50.943Z,66.59
2022-08-20T01:28:51.419Z,66.78
2022-08-20T01:29:50.398Z,66.78
2022-08-20T01:30:50.379Z,66.82
2022-08-20T01:31:50.369Z,66.72
2022-08-20T01:32:50.357Z,66.72
2022-08-20T01:33:50.378Z,66.82
2022-08-20T01:34:50.342Z,66.62
2022-08-20T01:35:50.335Z,66.62
2022-08-20T01:36:50.310Z,66.72
2022-08-20T01:37:50.331Z,67.02
2022-08-20T01:38:54.151Z,67.92
2022-08-20T01:39:50.344Z,68.73
2022-08-20T01:40:50.273Z,68.02
2022-08-20T01:41:50.275Z,68.02
2022-08-20T01:42:51.124Z,68.12
2022-08-20T01:43:51.276Z,68.02
2022-08-20T01:44:50.234Z,68.02
2022-08-20T01:45:50.225Z,67.62
2022-08-20T01:46:50.214Z,67.72
2022-08-20T01:47:50.208Z,67.82
2022-08-20T01:48:50.215Z,67.82
2022-08-20T01:49:50.187Z,67.92
2022-08-20T01:50:50.175Z,68.02
2022-08-20T01:51:50.166Z,68.22
2022-08-20T01:52:50.159Z,68.12
2022-08-20T01:53:50.169Z,68.52
2022-08-20T01:54:50.136Z,68.32
2022-08-20T01:55:50.126Z,68.52
2022-08-20T01:56:50.108Z,68.42
2022-08-20T01:57:50.136Z,68.62
2022-08-20T01:58:50.119Z,68.62
2022-08-20T01:59:51.087Z,68.62
2022-08-20T02:00:50.070Z,68.52
2022-08-20T02:01:50.093Z,68.62
2022-08-20T02:02:50.053Z,68.92
2022-08-20T02:03:50.072Z,68.92
2022-08-20T02:04:50.031Z,68.92
2022-08-20T02:05:50.023Z,68.73
2022-08-20T02:06:57.081Z,68.42
2022-08-20T02:07:51.004Z,68.62
2022-08-20T02:08:50.013Z,68.92
2022-08-20T02:09:49.989Z,68.73
2022-08-20T02:10:49.965Z,68.62
2022-08-20T02:11:49.962Z,68.73
2022-08-20T02:12:49.954Z,69.02
2022-08-20T02:13:49.964Z,68.92
2022-08-20T02:14:49.926Z,68.92
2022-08-20T02:15:49.926Z,69.02
2022-08-20T02:16:54.993Z,69.23
2022-08-20T02:17:50.970Z,69.16
2022-08-20T02:18:49.908Z,68.96
2022-08-20T02:19:49.878Z,69.26
2022-08-20T02:20:49.870Z,69.35
2022-08-20T02:21:49.858Z,69.26
2022-08-20T02:22:50.534Z,69.35
2022-08-20T02:23:49.861Z,69.66
2022-08-20T02:24:49.850Z,69.46
2022-08-20T02:25:49.822Z,69.26
2022-08-20T02:26:49.802Z,69.16
2022-08-20T02:27:49.858Z,69.26
2022-08-20T02:28:49.809Z,69.35
2022-08-20T02:29:49.781Z,69.35
2022-08-20T02:30:49.761Z,69.46
2022-08-20T02:32:24.847Z,69.26
2022-08-20T02:32:50.742Z,69.16
2022-08-20T02:34:22.258Z,69.06
2022-08-20T02:34:50.723Z,69.35
2022-08-20T02:35:49.715Z,69.66
2022-08-20T02:36:49.703Z,69.56
2022-08-20T02:37:49.760Z,69.46
2022-08-20T02:38:49.718Z,69.86
2022-08-20T02:39:49.719Z,69.99
2022-08-20T02:40:49.658Z,69.76
2022-08-20T02:41:49.657Z,69.69
2022-08-20T02:42:49.639Z,69.76
2022-08-20T02:43:49.658Z,69.89
2022-08-20T02:44:49.625Z,69.96
2022-08-20T02:45:49.626Z,70.06
2022-08-20T02:46:49.600Z,69.96
2022-08-20T02:47:49.627Z,70.16
2022-08-20T02:48:49.600Z,70.26
2022-08-20T02:49:49.569Z,70.06
2022-08-20T02:50:49.559Z,70.06
2022-08-20T02:51:49.551Z,69.46
2022-08-20T02:52:51.876Z,69.26
2022-08-20T02:53:49.561Z,69.16
2022-08-20T02:54:49.521Z,69.06
2022-08-20T02:55:49.513Z,69.26
2022-08-20T02:56:49.491Z,69.16
2022-08-20T02:57:49.556Z,69.26
2022-08-20T02:58:49.504Z,69.35
2022-08-20T02:59:49.472Z,69.69
2022-08-20T03:00:49.454Z,69.69
2022-08-20T03:02:00.001Z,69.79
2022-08-20T03:02:50.433Z,69.89
2022-08-20T03:03:49.454Z,69.99
2022-08-20T03:04:49.415Z,69.99
2022-08-20T03:05:49.408Z,69.89
2022-08-20T03:06:49.395Z,70.09
2022-08-20T03:07:49.404Z,70.19
2022-08-20T03:08:49.406Z,70.19
2022-08-20T03:09:49.377Z,70.09
2022-08-20T03:10:49.356Z,70.09
2022-08-20T03:11:49.353Z,70.19
2022-08-20T03:12:49.331Z,70.09
2022-08-20T03:13:49.349Z,70.19
2022-08-20T03:14:49.310Z,70.19
2022-08-20T03:15:49.300Z,70.39
2022-08-20T03:16:49.289Z,70.39
2022-08-20T03:17:49.346Z,70.39
2022-08-20T03:18:52.021Z,70.50
2022-08-20T03:19:49.270Z,70.69
2022-08-20T03:20:52.080Z,70.69
2022-08-20T03:21:49.250Z,70.59
2022-08-20T03:22:49.241Z,70.59
2022-08-20T03:23:49.243Z,70.59
2022-08-20T03:24:49.203Z,70.79
2022-08-20T03:25:49.204Z,70.59
2022-08-20T03:26:49.185Z,70.59
2022-08-20T03:27:53.161Z,70.79
2022-08-20T03:28:50.204Z,71.09
2022-08-20T03:29:49.165Z,71.00
2022-08-20T03:30:49.146Z,71.00
2022-08-20T03:31:49.147Z,70.79
2022-08-20T03:32:49.129Z,70.50
2022-08-20T03:33:52.980Z,70.29
2022-08-20T03:34:49.116Z,70.50
2022-08-20T03:35:49.098Z,70.39
2022-08-20T03:36:49.089Z,70.39
2022-08-20T03:37:49.086Z,70.59
2022-08-20T03:38:49.108Z,70.59
2022-08-20T03:39:49.102Z,70.59
2022-08-20T03:40:49.054Z,70.79
2022-08-20T03:41:49.040Z,70.79
2022-08-20T03:42:49.030Z,70.89
2022-08-20T03:43:49.048Z,71.20
2022-08-20T03:44:49.002Z,71.00
2022-08-20T03:45:49.994Z,70.69
2022-08-20T03:46:48.991Z,71.00
2022-08-20T03:47:48.973Z,70.79
2022-08-20T03:48:49.014Z,70.69
2022-08-20T03:49:48.964Z,70.39
2022-08-20T03:50:48.943Z,70.39
2022-08-20T03:51:57.791Z,70.50
2022-08-20T03:52:49.924Z,70.59
2022-08-20T03:53:48.943Z,70.69
2022-08-20T03:54:48.906Z,70.79
2022-08-20T03:55:54.031Z,70.93
2022-08-20T03:56:49.846Z,70.89
2022-08-20T03:57:48.826Z,71.13
2022-08-20T03:58:48.836Z,71.23
2022-08-20T03:59:54.711Z,71.43
2022-08-20T04:00:49.837Z,71.70
2022-08-20T04:01:48.916Z,71.53
2022-08-20T04:02:48.793Z,71.13
2022-08-20T04:03:52.151Z,71.23
2022-08-20T04:04:49.740Z,71.43
2022-08-20T04:05:48.768Z,71.63
2022-08-20T04:06:48.721Z,71.23
2022-08-20T04:07:48.721Z,71.20
2022-08-20T04:08:48.734Z,71.50
2022-08-20T04:09:48.720Z,71.50
2022-08-20T04:10:48.685Z,71.20
2022-08-20T04:11:48.683Z,71.00
2022-08-20T04:12:52.744Z,71.09
2022-08-20T04:13:48.683Z,71.50
2022-08-20T04:14:48.644Z,71.70
2022-08-20T04:15:48.644Z,71.70
2022-08-20T04:16:49.057Z,71.80
2022-08-20T04:17:48.615Z,71.70
2022-08-20T04:19:00.653Z,71.80
2022-08-20T04:19:49.602Z,71.50
2022-08-20T04:20:48.585Z,71.50
2022-08-20T04:21:48.637Z,71.90
2022-08-20T04:22:50.811Z,71.90
2022-08-20T04:23:49.577Z,71.90
2022-08-20T04:24:48.538Z,71.80
2022-08-20T04:25:48.538Z,71.90
2022-08-20T04:26:48.521Z,71.80
2022-08-20T04:27:48.519Z,71.80
2022-08-20T04:28:48.519Z,71.59
2022-08-20T04:29:48.490Z,71.80
2022-08-20T04:30:52.033Z,71.90
2022-08-20T04:31:48.482Z,71.83
2022-08-20T04:32:48.468Z,71.73
2022-08-20T04:33:48.481Z,71.93
2022-08-20T04:34:48.441Z,71.93
2022-08-20T04:35:48.433Z,72.03
2022-08-20T04:36:48.424Z,72.13
2022-08-20T04:37:48.424Z,72.13
2022-08-20T04:38:50.210Z,72.03
2022-08-20T04:39:48.436Z,71.93
2022-08-20T04:40:48.377Z,71.93
2022-08-20T04:41:48.384Z,72.13
2022-08-20T04:42:48.355Z,72.24
2022-08-20T04:43:49.376Z,72.33
2022-08-20T04:44:48.335Z,72.13
2022-08-20T04:45:48.334Z,72.03
2022-08-20T04:46:48.327Z,72.13
2022-08-20T04:47:48.309Z,72.24
2022-08-20T04:48:49.215Z,72.43
2022-08-20T04:49:48.289Z,72.63
2022-08-20T04:50:48.279Z,72.74
2022-08-20T04:51:48.272Z,72.74
2022-08-20T04:52:48.258Z,72.63
2022-08-20T04:53:52.287Z,72.74
2022-08-20T04:54:49.230Z,72.94
2022-08-20T04:55:48.230Z,73.03
2022-08-20T04:56:48.220Z,73.13
2022-08-20T04:57:48.213Z,73.03
2022-08-20T04:58:48.220Z,73.13
2022-08-20T04:59:48.189Z,73.13
2022-08-20T05:00:48.221Z,73.24
2022-08-20T05:01:48.181Z,73.33
2022-08-20T05:02:48.152Z,73.33
2022-08-20T05:03:48.201Z,73.24
2022-08-20T05:04:48.134Z,73.33
2022-08-20T05:05:48.125Z,73.33
2022-08-20T05:06:48.112Z,73.44
2022-08-20T05:07:48.112Z,73.24
2022-08-20T05:08:48.124Z,73.44
2022-08-20T05:09:48.096Z,73.94
2022-08-20T05:10:48.075Z,73.74
2022-08-20T05:11:48.066Z,73.74
2022-08-20T05:12:56.899Z,73.74
2022-08-20T05:13:49.067Z,73.54
2022-08-20T05:14:48.037Z,73.30
2022-08-20T05:15:48.035Z,73.20
2022-08-20T05:16:48.017Z,73.00
2022-08-20T05:17:48.017Z,73.20
2022-08-20T05:18:52.258Z,72.90
2022-08-20T05:19:47.989Z,73.00
2022-08-20T05:20:47.970Z,72.80
2022-08-20T05:21:47.971Z,72.80
2022-08-20T05:22:47.950Z,72.60
2022-08-20T05:23:47.970Z,72.80
2022-08-20T05:24:47.939Z,72.66
2022-08-20T05:25:47.923Z,72.56
2022-08-20T05:26:47.920Z,72.86
2022-08-20T05:27:47.970Z,72.86
2022-08-20T05:28:58.013Z,72.77
2022-08-20T05:29:48.883Z,73.07
2022-08-20T05:30:47.874Z,73.16
2022-08-20T05:31:47.873Z,73.97
2022-08-20T05:32:47.855Z,74.90
2022-08-20T05:33:47.956Z,75.10
2022-08-20T05:34:47.843Z,76.21
2022-08-20T05:35:47.816Z,76.01
2022-08-20T05:36:49.101Z,75.51
2022-08-20T05:37:47.805Z,75.60
2022-08-20T05:38:49.634Z,76.11
2022-08-20T05:39:47.820Z,75.91
2022-08-20T05:40:47.776Z,75.71
2022-08-20T05:41:47.761Z,76.51
2022-08-20T05:42:47.756Z,77.01
2022-08-20T05:43:47.870Z,76.91
2022-08-20T05:44:47.732Z,76.91
2022-08-20T05:45:47.722Z,77.41
2022-08-20T05:46:47.710Z,78.22
2022-08-20T05:47:47.700Z,79.22
2022-08-20T05:48:48.712Z,79.12
2022-08-20T05:49:47.679Z,79.52
2022-08-20T05:50:47.671Z,79.42
2022-08-20T05:51:47.665Z,79.92
2022-08-20T05:52:47.653Z,79.32
2022-08-20T05:53:47.764Z,79.92
2022-08-20T05:54:47.668Z,80.42
2022-08-20T05:55:47.621Z,80.72
2022-08-20T05:56:47.612Z,80.82
2022-08-20T05:57:47.595Z,81.02
2022-08-20T05:58:47.639Z,81.32
2022-08-20T05:59:47.575Z,81.02
2022-08-20T06:00:47.664Z,81.42
2022-08-20T06:01:47.559Z,81.23
2022-08-20T06:02:47.555Z,80.92
2022-08-20T06:03:47.585Z,80.42
2022-08-20T06:04:47.549Z,81.02
2022-08-20T06:05:48.518Z,81.32
2022-08-20T06:06:47.813Z,81.02
2022-08-20T06:07:47.498Z,80.92
2022-08-20T06:08:47.519Z,81.42
2022-08-20T06:09:47.472Z,81.42
2022-08-20T06:10:47.469Z,82.03
2022-08-20T06:11:47.449Z,81.73
2022-08-20T06:12:47.457Z,81.82
2022-08-20T06:13:47.569Z,81.68
2022-08-20T06:14:47.430Z,82.32
2022-08-20T06:15:47.411Z,81.79
2022-08-20T06:16:57.341Z,82.09
2022-08-20T06:17:58.259Z,82.18
2022-08-20T06:18:48.413Z,81.99
2022-08-20T06:19:47.376Z,81.68
2022-08-20T06:20:47.365Z,82.18
2022-08-20T06:21:47.354Z,82.59
2022-08-20T06:22:47.362Z,82.49
2022-08-20T06:23:56.925Z,82.29
2022-08-20T06:24:48.326Z,82.18
2022-08-20T06:25:47.315Z,83.39
2022-08-20T06:26:47.307Z,83.99
2022-08-20T06:27:47.296Z,83.59
2022-08-20T06:28:47.310Z,82.99
2022-08-20T06:29:47.269Z,83.49
2022-08-20T06:30:47.258Z,83.39
2022-08-20T06:31:47.248Z,83.49
2022-08-20T06:32:47.239Z,82.69
2022-08-20T06:33:47.233Z,82.93
2022-08-20T06:34:49.808Z,82.23
2022-08-20T06:35:47.209Z,82.32
2022-08-20T06:36:47.200Z,82.63
2022-08-20T06:37:47.191Z,82.93
2022-08-20T06:38:47.182Z,83.03
2022-08-20T06:39:47.222Z,83.23
2022-08-20T06:40:47.163Z,83.73
2022-08-20T06:41:47.145Z,83.33
2022-08-20T06:42:48.806Z,83.33
2022-08-20T06:43:47.125Z,83.33
2022-08-20T06:44:47.164Z,83.23
2022-08-20T06:45:47.109Z,83.43
2022-08-20T06:46:47.102Z,83.63
2022-08-20T06:47:47.085Z,83.23
2022-08-20T06:48:47.083Z,82.82
2022-08-20T06:49:47.086Z,82.82
2022-08-20T06:50:47.850Z,83.13
2022-08-20T06:51:50.080Z,83.43
2022-08-20T06:53:03.081Z,82.82
2022-08-20T06:53:48.037Z,83.27
2022-08-20T06:54:47.039Z,83.63
2022-08-20T06:55:48.549Z,83.73
2022-08-20T06:56:46.999Z,83.53
2022-08-20T06:57:46.978Z,83.23
2022-08-20T06:58:46.978Z,83.93
2022-08-20T06:59:52.321Z,84.23
2022-08-20T07:00:47.996Z,84.23
2022-08-20T07:01:46.968Z,84.93
2022-08-20T07:02:46.940Z,85.03
2022-08-20T07:03:54.768Z,84.43
2022-08-20T07:04:47.940Z,84.43
2022-08-20T07:05:46.903Z,84.83
2022-08-20T07:06:46.912Z,84.49
2022-08-20T07:07:46.885Z,83.89
2022-08-20T07:08:46.922Z,84.19
2022-08-20T07:09:46.872Z,83.99
2022-08-20T07:10:46.860Z,83.89
2022-08-20T07:11:46.844Z,83.79
2022-08-20T07:12:46.881Z,83.89
2022-08-20T07:13:46.845Z,84.29
2022-08-20T07:14:46.818Z,84.09
2022-08-20T07:15:46.805Z,83.59
2022-08-20T07:16:46.816Z,83.59
2022-08-20T07:17:46.795Z,83.69
2022-08-20T07:18:46.797Z,83.09
2022-08-20T07:19:46.757Z,82.69
2022-08-20T07:20:46.757Z,82.39
2022-08-20T07:21:46.746Z,82.59
2022-08-20T07:22:46.729Z,82.99
2022-08-20T07:23:46.739Z,83.29
2022-08-20T07:24:49.105Z,83.99
2022-08-20T07:25:46.700Z,83.89
2022-08-20T07:26:46.690Z,83.99
2022-08-20T07:27:46.690Z,84.29
2022-08-20T07:28:46.698Z,84.69
2022-08-20T07:29:46.661Z,85.30
2022-08-20T07:30:56.515Z,84.19
2022-08-20T07:31:48.181Z,83.49
2022-08-20T07:32:46.632Z,83.69
2022-08-20T07:33:46.623Z,84.29
2022-08-20T07:34:46.640Z,83.85
2022-08-20T07:35:46.594Z,84.15
2022-08-20T07:36:46.600Z,83.65
2022-08-20T07:37:46.576Z,83.75
2022-08-20T07:38:46.576Z,83.65
2022-08-20T07:39:46.604Z,84.45
2022-08-20T07:40:46.558Z,83.15
2022-08-20T07:41:53.460Z,82.45
2022-08-20T07:42:47.529Z,83.25
2022-08-20T07:43:46.519Z,83.85
2022-08-20T07:44:46.537Z,83.85
2022-08-20T07:45:49.841Z,83.25
2022-08-20T07:46:47.489Z,82.71
2022-08-20T07:47:46.477Z,81.15
2022-08-20T07:48:46.469Z,81.04
2022-08-20T07:49:46.478Z,80.65
2022-08-20T07:50:46.460Z,80.65
2022-08-20T07:51:46.430Z,81.24
2022-08-20T07:52:46.430Z,81.85
2022-08-20T07:53:46.413Z,81.65
2022-08-20T07:54:46.433Z,81.71
2022-08-20T07:55:57.120Z,81.71
2022-08-20T07:56:47.393Z,81.81
2022-08-20T07:57:46.372Z,81.51
2022-08-20T07:58:46.365Z,82.21
2022-08-20T07:59:46.381Z,80.80
2022-08-20T08:00:46.377Z,81.01
2022-08-20T08:01:46.350Z,81.61
2022-08-20T08:02:46.325Z,81.81
2022-08-20T08:03:49.783Z,81.81
2022-08-20T08:04:46.325Z,81.41
2022-08-20T08:05:46.286Z,81.81
2022-08-20T08:06:46.286Z,81.57
2022-08-20T08:07:46.327Z,81.17
2022-08-20T08:08:46.268Z,80.97
2022-08-20T08:09:46.275Z,80.47
2022-08-20T08:10:46.245Z,80.97
2022-08-20T08:11:47.709Z,81.37
2022-08-20T08:12:46.229Z,81.07
2022-08-20T08:13:46.208Z,80.77
2022-08-20T08:14:46.230Z,79.86
2022-08-20T08:15:46.190Z,80.07
2022-08-20T08:16:46.183Z,80.87
2022-08-20T08:17:46.170Z,81.17
2022-08-20T08:18:46.168Z,81.13
2022-08-20T08:19:46.171Z,81.93
2022-08-20T08:20:46.965Z,80.93
2022-08-20T08:21:46.216Z,80.93
2022-08-20T08:22:46.130Z,81.13
2022-08-20T08:23:46.109Z,81.53
2022-08-20T08:24:56.608Z,81.33
2022-08-20T08:25:47.085Z,81.79
2022-08-20T08:26:46.088Z,80.59
2022-08-20T08:27:46.066Z,80.89
2022-08-20T08:28:46.067Z,81.39
2022-08-20T08:29:46.074Z,81.49
2022-08-20T08:30:46.036Z,81.39
2022-08-20T08:31:46.047Z,81.19
2022-08-20T08:32:46.018Z,80.89
2022-08-20T08:33:46.007Z,81.29
2022-08-20T08:34:46.025Z,81.59
2022-08-20T08:35:45.988Z,81.29
2022-08-20T08:36:45.980Z,80.79
2022-08-20T08:37:45.968Z,80.59
2022-08-20T08:38:45.960Z,80.79
2022-08-20T08:39:46.013Z,81.09
2022-08-20T08:40:46.091Z,81.49
2022-08-20T08:41:45.956Z,81.65
2022-08-20T08:42:45.921Z,81.65
2022-08-20T08:43:45.909Z,81.75
2022-08-20T08:44:45.923Z,81.85
2022-08-20T08:45:45.889Z,81.65
2022-08-20T08:46:45.883Z,80.95
2022-08-20T08:47:45.862Z,80.35
2022-08-20T08:48:45.866Z,80.85
2022-08-20T08:49:45.877Z,81.65
2022-08-20T08:50:53.499Z,82.15
2022-08-20T08:51:46.826Z,81.75
2022-08-20T08:52:45.827Z,79.91
2022-08-20T08:53:45.805Z,79.82
2022-08-20T08:54:45.826Z,78.78
2022-08-20T08:55:45.790Z,77.74
2022-08-20T08:56:49.930Z,77.01
2022-08-20T08:57:45.765Z,73.88
2022-08-20T08:58:45.769Z,74.98
2022-08-20T08:59:58.401Z,74.94
2022-08-20T09:00:52.824Z,75.14
2022-08-20T09:01:54.054Z,75.10
2022-08-20T09:02:46.731Z,75.96
2022-08-20T09:03:45.700Z,73.68
2022-08-20T09:04:45.721Z,73.74
2022-08-20T09:05:45.689Z,72.38
2022-08-20T09:06:47.556Z,71.69
2022-08-20T09:07:45.680Z,73.01
2022-08-20T09:08:45.652Z,73.31
2022-08-20T09:09:45.663Z,74.51
2022-08-20T09:10:45.634Z,73.51
2022-08-20T09:11:45.624Z,75.24
2022-08-20T09:12:47.776Z,75.74
2022-08-20T09:13:45.606Z,76.64
2022-08-20T09:14:45.625Z,75.14
2022-08-20T09:15:45.595Z,73.94
2022-08-20T09:16:52.880Z,74.54
2022-08-20T09:17:46.558Z,76.93
2022-08-20T09:18:45.559Z,76.67
2022-08-20T09:19:45.567Z,77.37
2022-08-20T09:20:45.540Z,74.98
2022-08-20T09:21:45.518Z,74.58
2022-08-20T09:22:45.527Z,75.44
2022-08-20T09:23:45.500Z,75.14
2022-08-20T09:24:45.527Z,74.80
2022-08-20T09:25:45.482Z,73.81
2022-08-20T09:26:45.472Z,72.48
2022-08-20T09:27:45.462Z,72.48
2022-08-20T09:28:49.976Z,71.35
2022-08-20T09:29:46.461Z,69.76
2022-08-20T09:30:45.432Z,70.45
2022-08-20T09:31:45.424Z,70.85
2022-08-20T09:32:45.414Z,71.84
2022-08-20T09:33:45.403Z,71.42
2022-08-20T09:34:45.421Z,69.92
2022-08-20T09:35:45.384Z,69.69
2022-08-20T09:36:45.376Z,68.66
2022-08-20T09:37:45.356Z,68.86
2022-08-20T09:38:45.357Z,69.13
2022-08-20T09:39:45.438Z,68.93
2022-08-20T09:40:45.344Z,67.83
2022-08-20T09:41:45.330Z,67.94
2022-08-20T09:42:45.319Z,70.12
2022-08-20T09:43:45.305Z,69.96
2022-08-20T09:44:45.318Z,68.46
2022-08-20T09:45:45.279Z,69.16
2022-08-20T09:46:45.271Z,70.95
2022-08-20T09:47:56.220Z,70.19
2022-08-20T09:48:46.250Z,68.80
2022-08-20T09:49:45.271Z,68.30
2022-08-20T09:50:45.232Z,69.73
2022-08-20T09:51:45.222Z,68.83
2022-08-20T09:52:45.213Z,68.83
2022-08-20T09:53:45.204Z,69.76
2022-08-20T09:54:46.440Z,69.56
2022-08-20T09:55:45.185Z,71.05
2022-08-20T09:56:45.175Z,69.79
2022-08-20T09:57:45.172Z,69.59
2022-08-20T09:58:45.145Z,69.89
2022-08-20T09:59:45.171Z,70.52
2022-08-20T10:00:45.127Z,70.03
2022-08-20T10:01:45.162Z,72.41
2022-08-20T10:02:45.119Z,70.75
2022-08-20T10:03:45.105Z,71.75
2022-08-20T10:04:45.118Z,72.85
2022-08-20T10:05:45.086Z,72.25
2022-08-20T10:06:45.072Z,73.14
2022-08-20T10:07:45.061Z,72.45
2022-08-20T10:08:45.049Z,72.58
2022-08-20T10:09:45.070Z,72.88
2022-08-20T10:10:45.033Z,73.78
2022-08-20T10:11:45.030Z,74.68
2022-08-20T10:12:45.028Z,73.58
2022-08-20T10:13:45.003Z,74.08
2022-08-20T10:14:45.012Z,72.88
2022-08-20T10:15:44.984Z,72.68
2022-08-20T10:16:44.979Z,71.89
2022-08-20T10:17:44.963Z,71.89
2022-08-20T10:18:44.953Z,72.68
2022-08-20T10:19:44.964Z,72.38
2022-08-20T10:20:44.924Z,72.42
2022-08-20T10:21:44.926Z,74.11
2022-08-20T10:22:44.905Z,75.61
2022-08-20T10:23:44.905Z,75.61
2022-08-20T10:24:44.918Z,75.11
2022-08-20T10:25:44.885Z,75.91
2022-08-20T10:26:44.867Z,70.92
2022-08-20T10:27:44.875Z,70.59
2022-08-20T10:28:44.849Z,70.62
2022-08-20T10:29:47.071Z,71.19
2022-08-20T10:30:44.830Z,70.79
2022-08-20T10:31:44.826Z,70.29
2022-08-20T10:32:44.811Z,68.33
2022-08-20T10:33:44.804Z,67.44
2022-08-20T10:34:44.811Z,65.72
2022-08-20T10:35:44.782Z,65.72
2022-08-20T10:36:44.771Z,65.31
2022-08-20T10:37:44.764Z,65.19
2022-08-20T10:38:44.750Z,65.16
2022-08-20T10:39:44.797Z,65.16
2022-08-20T10:40:52.226Z,64.03
2022-08-20T10:41:45.723Z,65.06
2022-08-20T10:42:44.708Z,63.86
2022-08-20T10:43:44.702Z,65.58
2022-08-20T10:44:44.729Z,64.09
2022-08-20T10:45:44.685Z,66.18
2022-08-20T10:46:44.668Z,64.79
2022-08-20T10:47:44.660Z,66.18
2022-08-20T10:48:44.667Z,65.48
2022-08-20T10:49:44.659Z,65.78
2022-08-20T10:50:44.627Z,68.37
2022-08-20T10:51:44.626Z,69.53
2022-08-20T10:52:44.609Z,68.04
2022-08-20T10:53:44.601Z,66.58
2022-08-20T10:54:44.614Z,64.49
2022-08-20T10:55:44.591Z,66.08
2022-08-20T10:56:44.573Z,64.09
2022-08-20T10:57:44.579Z,63.82
2022-08-20T10:58:44.639Z,64.62
2022-08-20T10:59:44.574Z,65.22
2022-08-20T11:00:44.537Z,64.32
2022-08-20T11:01:44.539Z,64.06
2022-08-20T11:02:44.506Z,65.05
2022-08-20T11:03:44.504Z,65.35
2022-08-20T11:04:44.513Z,67.63
2022-08-20T11:05:44.494Z,68.73
2022-08-20T11:06:44.484Z,67.27
2022-08-20T11:07:54.832Z,68.96
2022-08-20T11:08:45.447Z,66.38
2022-08-20T11:09:44.466Z,66.97
2022-08-20T11:10:44.428Z,66.87
2022-08-20T11:11:44.418Z,67.37
2022-08-20T11:12:45.545Z,66.87
2022-08-20T11:13:44.400Z,69.06
2022-08-20T11:14:44.419Z,67.97
2022-08-20T11:15:44.388Z,68.86
2022-08-20T11:16:44.373Z,68.76
2022-08-20T11:17:44.359Z,68.40
2022-08-20T11:18:47.701Z,69.36
2022-08-20T11:19:44.349Z,68.90
2022-08-20T11:20:44.352Z,69.59
2022-08-20T11:21:44.340Z,70.15
2022-08-20T11:22:44.302Z,69.92
2022-08-20T11:23:44.303Z,70.22
2022-08-20T11:24:44.283Z,69.82
2022-08-20T11:25:44.304Z,69.23
2022-08-20T11:26:44.264Z,65.84
2022-08-20T11:27:44.270Z,64.92
2022-08-20T11:28:44.244Z,64.49
2022-08-20T11:29:44.236Z,65.19
2022-08-20T11:30:44.254Z,65.25
2022-08-20T11:31:44.223Z,64.83
2022-08-20T11:32:44.206Z,65.32
2022-08-20T11:33:44.206Z,63.40
2022-08-20T11:34:44.188Z,63.97
2022-08-20T11:35:49.741Z,62.78
2022-08-20T11:36:45.169Z,61.99
2022-08-20T11:37:44.158Z,60.67
2022-08-20T11:38:44.148Z,60.57
2022-08-20T11:39:44.202Z,61.46
2022-08-20T11:40:44.129Z,60.94
2022-08-20T11:41:45.883Z,60.74
2022-08-20T11:43:04.388Z,61.04
2022-08-20T11:43:59.496Z,60.94
2022-08-20T11:44:45.110Z,61.43
2022-08-20T11:45:44.086Z,61.96
2022-08-20T11:46:44.072Z,61.07
2022-08-20T11:47:44.064Z,60.77
2022-08-20T11:48:44.054Z,60.47
2022-08-20T11:49:44.074Z,60.30
2022-08-20T11:50:44.033Z,60.99
2022-08-20T11:51:49.709Z,60.80
2022-08-20T11:52:45.025Z,60.60
2022-08-20T11:53:44.001Z,60.03
2022-08-20T11:54:44.006Z,58.94
2022-08-20T11:55:43.997Z,59.83
2022-08-20T11:56:46.096Z,62.64
2022-08-20T11:57:43.959Z,62.15
2022-08-20T11:58:43.950Z,62.15
2022-08-20T11:59:43.960Z,61.75
2022-08-20T12:00:43.932Z,63.73
2022-08-20T12:01:46.550Z,62.47
2022-08-20T12:02:44.963Z,61.38
2022-08-20T12:03:43.902Z,61.68
2022-08-20T12:04:43.921Z,61.61
2022-08-20T12:05:43.940Z,62.80
2022-08-20T12:06:43.862Z,63.40
2022-08-20T12:07:43.853Z,64.42
2022-08-20T12:08:43.844Z,65.81
2022-08-20T12:09:51.201Z,66.71
2022-08-20T12:10:44.825Z,66.64
2022-08-20T12:11:43.824Z,67.33
2022-08-20T12:12:43.804Z,67.86
2022-08-20T12:13:48.400Z,68.56
2022-08-20T12:14:44.807Z,69.09
2022-08-20T12:15:43.778Z,69.29
2022-08-20T12:16:43.766Z,69.53
2022-08-20T12:17:43.758Z,70.22
2022-08-20T12:18:43.738Z,71.25
2022-08-20T12:19:43.768Z,72.05
2022-08-20T12:20:43.720Z,71.98
2022-08-20T12:21:43.719Z,71.72
2022-08-20T12:22:43.699Z,73.61
2022-08-20T12:23:43.698Z,73.85
2022-08-20T12:24:43.701Z,74.35
2022-08-20T12:25:43.681Z,74.85
2022-08-20T12:26:43.686Z,75.48
2022-08-20T12:27:43.653Z,75.59
2022-08-20T12:28:43.643Z,74.88
2022-08-20T12:29:43.669Z,75.68
2022-08-20T12:30:43.623Z,76.98
2022-08-20T12:31:43.614Z,76.38
2022-08-20T12:32:43.604Z,75.59
2022-08-20T12:33:43.607Z,76.78
2022-08-20T12:34:43.612Z,75.89
2022-08-20T12:35:43.583Z,75.68
2022-08-20T12:36:43.567Z,75.78
2022-08-20T12:37:43.565Z,75.89
2022-08-20T12:38:43.569Z,76.38
2022-08-20T12:39:43.605Z,75.68
2022-08-20T12:40:43.519Z,75.78
2022-08-20T12:41:43.516Z,75.48
2022-08-20T12:42:43.498Z,75.95
2022-08-20T12:43:43.491Z,76.45
2022-08-20T12:44:43.510Z,77.04
2022-08-20T12:45:43.470Z,76.04
2022-08-20T12:46:43.460Z,75.74
2022-08-20T12:47:44.972Z,76.25
2022-08-20T12:48:43.451Z,75.89
2022-08-20T12:49:43.433Z,75.68
2022-08-20T12:50:43.441Z,74.68
2022-08-20T12:51:43.412Z,74.68
2022-08-20T12:52:43.395Z,74.88